Time;durP1;ratioP1;P1;durP2;ratioP2;P2;SDS_P1;SDS_P2;PMS_P1;PMS_P2;Temp;Humidity;BMP_temperature;BMP_pressure;BME280_temperature;BME280_humidity;BME280_pressure;Samples;Min_cycle;Max_cycle;Signal;HPM_P1;HPM_P2
2022/04/04 00:00:10;;;;;;;52.00;46.30;;;;;;;-0.94;67.51;97925.84;108014;1288;22267;-82
2022/04/04 00:02:58;;;;;;;50.30;44.80;;;;;;;-0.88;67.52;97932.80;108008;1290;22446;-79
2022/04/04 00:05:26;;;;;;;49.50;44.40;;;;;;;-0.85;67.49;97927.70;107983;1290;22602;-80
2022/04/04 00:07:54;;;;;;;52.10;46.80;;;;;;;-0.83;67.75;97928.55;107867;1290;22273;-80
2022/04/04 00:10:22;;;;;;;51.00;45.80;;;;;;;-0.83;67.81;97928.53;108019;1290;22506;-80
2022/04/04 00:12:49;;;;;;;50.40;45.10;;;;;;;-0.84;68.01;97923.34;107934;1290;22311;-79
2022/04/04 00:15:17;;;;;;;53.10;47.80;;;;;;;-0.87;67.78;97926.61;107842;1290;23280;-80
2022/04/04 00:17:45;;;;;;;57.00;51.40;;;;;;;-0.88;67.90;97923.65;107912;1290;22291;-83
2022/04/04 00:20:13;;;;;;;52.90;47.60;;;;;;;-0.88;68.15;97923.66;107700;1291;22376;-82
2022/04/04 00:22:41;;;;;;;55.20;49.80;;;;;;;-0.91;68.18;97921.09;108244;1290;22396;-83
2022/04/04 00:25:10;;;;;;;53.60;48.00;;;;;;;-0.94;68.14;97921.86;108288;1289;22273;-81
2022/04/04 00:27:37;;;;;;;50.60;45.30;;;;;;;-0.98;68.15;97918.89;108011;1291;22393;-81
2022/04/04 00:30:06;;;;;;;49.70;44.60;;;;;;;-1.00;68.20;97917.27;107652;1290;192013;-81
2022/04/04 00:32:36;;;;;;;49.10;43.90;;;;;;;-0.96;68.23;97919.27;107936;1290;22488;-81
2022/04/04 00:35:04;;;;;;;48.10;43.60;;;;;;;-0.93;68.15;97919.15;108037;1290;22464;-81
2022/04/04 00:37:59;;;;;;;45.80;41.30;;;;;;;-0.92;68.29;97924.04;107981;1290;22366;-82
2022/04/04 00:40:27;;;;;;;46.00;41.60;;;;;;;-0.95;68.61;97923.33;107909;1290;22561;-81
2022/04/04 00:42:55;;;;;;;45.20;40.80;;;;;;;-0.99;68.39;97918.41;107841;1291;22357;-80
2022/04/04 00:45:23;;;;;;;46.10;41.50;;;;;;;-1.01;68.59;97914.33;107863;1290;22442;-81
2022/04/04 00:47:50;;;;;;;47.20;42.20;;;;;;;-1.04;68.48;97912.30;107857;1290;22494;-83
2022/04/04 00:50:18;;;;;;;42.00;38.00;;;;;;;-1.05;68.41;97910.45;107624;1290;23087;-81
2022/04/04 00:52:47;;;;;;;41.20;37.30;;;;;;;-1.07;68.54;97908.77;107886;1290;22442;-83
2022/04/04 00:55:15;;;;;;;38.70;34.70;;;;;;;-1.09;68.37;97909.02;107867;1290;22960;-80
2022/04/04 00:57:44;;;;;;;37.40;33.70;;;;;;;-1.10;68.61;97910.42;107904;1290;22544;-80
2022/04/04 01:00:12;;;;;;;37.40;33.70;;;;;;;-1.08;68.65;97909.25;107967;1290;22335;-82
2022/04/04 01:02:41;;;;;;;36.10;32.60;;;;;;;-1.04;68.54;97905.48;107612;1291;23425;-85
2022/04/04 01:05:10;;;;;;;35.80;32.20;;;;;;;-0.99;68.54;97906.38;107802;1290;22280;-84
2022/04/04 01:07:39;;;;;;;36.10;32.60;;;;;;;-0.98;68.56;97902.85;107853;1290;23149;-85
2022/04/04 01:10:11;;;;;;;35.60;32.20;;;;;;;-1.00;68.68;97900.85;107689;1292;22972;-85
2022/04/04 01:12:50;;;;;;;36.80;33.20;;;;;;;-0.98;68.70;97902.23;107528;1293;22309;-86
2022/04/04 01:15:19;;;;;;;37.30;33.60;;;;;;;-0.98;68.76;97903.30;107847;1290;22723;-84
2022/04/04 01:17:48;;;;;;;36.60;33.00;;;;;;;-0.99;68.72;97905.77;107816;1290;22528;-83
2022/04/04 01:20:15;;;;;;;35.30;32.00;;;;;;;-1.02;68.68;97903.98;107812;1290;22267;-89
2022/04/04 01:22:48;;;;;;;36.70;33.00;;;;;;;-1.06;68.48;97902.93;107807;1291;22356;-86
2022/04/04 01:25:23;;;;;;;34.70;31.50;;;;;;;-1.09;68.58;97905.01;107807;1291;22398;-85
2022/04/04 01:27:52;;;;;;;35.50;31.30;;;;;;;-1.11;68.54;97903.24;107793;1290;23163;-84
2022/04/04 01:30:26;;;;;;;34.10;30.80;;;;;;;-1.14;68.65;97900.92;107815;1290;22506;-85
2022/04/04 01:32:54;;;;;;;31.20;28.10;;;;;;;-1.14;68.50;97895.10;107819;1291;22375;-83
2022/04/04 01:35:24;;;;;;;31.80;28.60;;;;;;;-1.12;68.58;97890.06;107778;1290;22963;-85
2022/04/04 01:37:52;;;;;;;32.40;29.40;;;;;;;-1.09;68.58;97889.98;107764;1290;22411;-84
2022/04/04 01:40:20;;;;;;;32.90;29.90;;;;;;;-1.09;68.64;97887.58;107807;1290;22507;-86
2022/04/04 01:42:50;;;;;;;30.70;27.90;;;;;;;-1.10;68.68;97889.02;107789;1291;22467;-84
2022/04/04 01:46:23;;;;;;;32.20;28.90;;;;;;;-1.11;68.73;97882.91;107793;1290;22430;-85
2022/04/04 01:48:07;;;;;;;31.50;28.60;;;;;;;-1.11;68.65;97883.02;107747;1290;22567;-86
2022/04/04 01:50:36;;;;;;;31.00;28.00;;;;;;;-1.12;68.66;97881.60;107768;1291;22438;-85
2022/04/04 01:55:53;;;;;;;31.10;28.10;;;;;;;-1.17;68.58;97877.35;107776;1291;23114;-85
2022/04/04 01:58:21;;;;;;;31.70;28.70;;;;;;;-1.19;68.69;97875.07;107609;1291;22733;-84
2022/04/04 02:00:49;;;;;;;31.10;28.20;;;;;;;-1.20;68.64;97874.20;107813;1291;22388;-85
2022/04/04 02:03:17;;;;;;;27.10;24.60;;;;;;;-1.23;68.65;97869.42;107826;1290;22889;-86
2022/04/04 02:05:46;;;;;;;27.20;24.60;;;;;;;-1.24;68.54;97872.03;107801;1291;22471;-80
2022/04/04 02:08:14;;;;;;;26.30;23.90;;;;;;;-1.21;68.58;97866.91;107765;1291;23001;-86
2022/04/04 02:10:42;;;;;;;27.60;24.90;;;;;;;-1.18;68.54;97863.13;107813;1290;22300;-84
2022/04/04 02:13:10;;;;;;;26.50;23.90;;;;;;;-1.18;68.50;97866.55;107794;1291;22266;-85
2022/04/04 02:15:38;;;;;;;25.90;23.30;;;;;;;-1.19;68.39;97865.39;107784;1291;22413;-85
2022/04/04 02:18:07;;;;;;;26.70;24.00;;;;;;;-1.22;68.41;97860.83;107789;1291;22390;-85
2022/04/04 02:20:35;;;;;;;26.90;24.40;;;;;;;-1.24;68.37;97866.42;107807;1291;22381;-87
2022/04/04 02:23:05;;;;;;;27.80;24.60;;;;;;;-1.26;68.43;97861.77;107796;1290;22255;-85
2022/04/04 02:25:33;;;;;;;26.60;24.00;;;;;;;-1.27;68.51;97857.20;107828;1291;22365;-87
2022/04/04 02:28:01;;;;;;;24.90;22.80;;;;;;;-1.28;68.27;97855.84;107828;1291;22271;-86
2022/04/04 02:30:29;;;;;;;25.30;22.90;;;;;;;-1.31;68.34;97856.66;107825;1290;22372;-87
2022/04/04 02:32:57;;;;;;;25.10;22.90;;;;;;;-1.33;68.36;97855.11;107824;1291;22281;-87
2022/04/04 02:35:26;;;;;;;25.50;23.00;;;;;;;-1.35;68.27;97852.53;107838;1290;22259;-87
2022/04/04 02:37:54;;;;;;;24.00;21.60;;;;;;;-1.36;68.42;97853.41;107892;1290;22370;-87
2022/04/04 02:40:22;;;;;;;22.60;20.30;;;;;;;-1.35;68.24;97850.59;107889;1290;22139;-89
2022/04/04 02:42:50;;;;;;;21.30;19.30;;;;;;;-1.30;68.27;97847.71;107860;1290;22281;-89
2022/04/04 02:45:18;;;;;;;23.70;21.30;;;;;;;-1.25;68.23;97843.14;107862;1290;22248;-87
2022/04/04 02:47:46;;;;;;;22.30;20.20;;;;;;;-1.20;68.25;97847.91;108095;1291;22348;-87
2022/04/04 02:50:15;;;;;;;22.80;20.80;;;;;;;-1.19;68.38;97844.47;108007;1290;22445;-88
2022/04/04 02:52:43;;;;;;;23.30;21.10;;;;;;;-1.18;68.10;97842.43;107971;1290;22595;-90
2022/04/04 02:57:57;;;;;;;21.20;19.20;;;;;;;-1.21;68.24;97837.30;108069;1291;22932;-90
2022/04/04 03:00:25;;;;;;;23.30;21.00;;;;;;;-1.24;68.02;97843.13;108011;1291;22328;-89
2022/04/04 03:02:54;;;;;;;21.70;19.80;;;;;;;-1.25;68.16;97841.39;108149;1291;22327;-87
2022/04/04 03:05:23;;;;;;;24.20;21.90;;;;;;;-1.26;68.08;97842.62;108204;1291;22402;-89
2022/04/04 03:07:51;;;;;;;22.40;20.40;;;;;;;-1.27;68.08;97836.26;108134;1290;22414;-90
2022/04/04 03:10:20;;;;;;;24.20;21.80;;;;;;;-1.29;68.12;97835.30;108131;1290;22322;-90
2022/04/04 03:12:53;;;;;;;23.70;21.60;;;;;;;-1.31;68.13;97830.89;108111;1290;22332;-89
2022/04/04 03:15:23;;;;;;;25.40;23.10;;;;;;;-1.35;68.09;97826.80;108114;1291;22971;-87
2022/04/04 03:17:55;;;;;;;23.90;21.80;;;;;;;-1.38;68.18;97826.19;108047;1288;22289;-89
2022/04/04 03:20:25;;;;;;;22.70;20.50;;;;;;;-1.42;68.08;97827.66;108029;1291;22324;-90
2022/04/04 03:22:56;;;;;;;22.60;20.60;;;;;;;-1.44;68.01;97830.37;107919;1291;22945;-89
2022/04/04 03:25:25;;;;;;;22.80;20.40;;;;;;;-1.42;68.07;97834.69;107847;1291;22356;-90
2022/04/04 03:27:53;;;;;;;28.00;25.40;;;;;;;-1.40;68.16;97835.65;107539;1291;22313;-88
2022/04/04 03:30:28;;;;;;;28.30;25.50;;;;;;;-1.41;68.21;97833.83;107846;1289;22358;-88
2022/04/04 03:32:57;;;;;;;30.30;27.00;;;;;;;-1.41;68.18;97833.14;107824;1291;22347;-89
2022/04/04 03:35:28;;;;;;;26.30;23.90;;;;;;;-1.42;68.20;97836.86;107829;1290;22392;-89
2022/04/04 03:37:59;;;;;;;27.50;24.70;;;;;;;-1.45;68.13;97844.86;107850;1291;22357;-89
2022/04/04 03:40:28;;;;;;;23.90;21.60;;;;;;;-1.49;68.21;97844.82;107704;1291;22299;-88
2022/04/04 03:42:57;;;;;;;22.10;19.90;;;;;;;-1.53;67.98;97841.02;107860;1291;22257;-89
2022/04/04 03:45:25;;;;;;;23.00;20.90;;;;;;;-1.56;67.92;97844.02;107675;1291;23059;-88
2022/04/04 03:47:53;;;;;;;21.20;19.10;;;;;;;-1.61;67.90;97843.11;107853;1291;22378;-87
2022/04/04 03:50:22;;;;;;;24.00;21.50;;;;;;;-1.65;67.98;97842.69;107958;1289;22470;-87
2022/04/04 03:52:52;;;;;;;23.40;21.10;;;;;;;-1.68;68.07;97839.28;107863;1291;23077;-87
2022/04/04 03:55:22;;;;;;;25.30;22.80;;;;;;;-1.70;68.16;97835.40;107909;1290;23086;-87
2022/04/04 03:57:51;;;;;;;22.50;20.30;;;;;;;-1.71;67.95;97837.65;107913;1290;22315;-88
2022/04/04 04:00:21;;;;;;;21.70;19.50;;;;;;;-1.69;68.15;97836.64;107902;1290;22299;-89
2022/04/04 04:02:50;;;;;;;23.20;20.60;;;;;;;-1.64;68.09;97836.68;107930;1290;22334;-89
2022/04/04 04:05:19;;;;;;;24.50;22.10;;;;;;;-1.60;68.09;97841.23;108104;1290;22371;-88
2022/04/04 04:07:47;;;;;;;25.10;22.70;;;;;;;-1.60;68.26;97839.02;107966;1291;23035;-85
2022/04/04 04:10:15;;;;;;;29.10;24.00;;;;;;;-1.58;68.15;97832.25;108063;1290;22878;-87
2022/04/04 04:12:44;;;;;;;27.00;24.20;;;;;;;-1.56;68.32;97833.92;108043;1290;22259;-87
2022/04/04 04:15:15;;;;;;;33.20;29.90;;;;;;;-1.55;68.34;97837.26;108031;1289;22303;-87
2022/04/04 04:17:44;;;;;;;34.50;31.20;;;;;;;-1.54;68.23;97839.44;108043;1290;22313;-88
2022/04/04 04:20:29;;;;;;;32.40;29.30;;;;;;;-1.55;68.15;97840.27;108100;1290;22302;-88
2022/04/04 04:23:04;;;;;;;;;;;;;;;-1.55;68.27;97839.63;108074;1290;22489;-89
2022/04/04 04:25:33;;;;;;;27.80;25.00;;;;;;;-1.57;68.27;97839.20;108054;1290;22450;-88
2022/04/04 04:28:04;;;;;;;29.10;26.20;;;;;;;-1.59;68.08;97835.19;108029;1290;22900;-88
2022/04/04 04:30:32;;;;;;;28.80;26.00;;;;;;;-1.60;68.12;97836.70;107709;1290;23037;-88
2022/04/04 04:33:00;;;;;;;27.50;24.80;;;;;;;-1.60;68.05;97837.15;107665;1290;22411;-88
2022/04/04 04:35:28;;;;;;;27.70;25.20;;;;;;;-1.62;67.97;97835.92;107874;1291;22328;-88
2022/04/04 04:37:56;;;;;;;24.40;21.50;;;;;;;-1.63;67.78;97833.65;108015;1289;23015;-88
2022/04/04 04:40:24;;;;;;;24.50;21.90;;;;;;;-1.65;67.85;97832.21;108038;1290;22349;-87
2022/04/04 04:42:52;;;;;;;22.70;20.50;;;;;;;-1.64;67.91;97833.18;108028;1290;23068;-87
2022/04/04 04:45:21;;;;;;;24.90;22.40;;;;;;;-1.59;67.75;97834.86;108008;1290;22924;-88
2022/04/04 04:47:49;;;;;;;24.50;21.90;;;;;;;-1.56;67.74;97833.36;107984;1290;22444;-85
2022/04/04 04:50:19;;;;;;;28.20;25.60;;;;;;;-1.53;67.82;97835.24;107991;1290;22368;-85
2022/04/04 04:52:48;;;;;;;27.30;24.70;;;;;;;-1.52;67.81;97831.79;107976;1290;22480;-84
2022/04/04 04:55:18;;;;;;;28.20;25.50;;;;;;;-1.51;67.88;97833.17;107677;1290;22446;-85
2022/04/04 04:57:47;;;;;;;27.40;24.60;;;;;;;-1.51;67.66;97832.40;108007;1290;22350;-86
2022/04/04 05:00:21;;;;;;;26.00;23.50;;;;;;;-1.49;67.68;97831.24;107996;1290;22394;-84
2022/04/04 05:05:39;;;;;;;28.00;25.40;;;;;;;-1.45;67.29;97838.38;107683;1290;22973;-85
2022/04/04 05:08:08;;;;;;;29.30;26.30;;;;;;;-1.42;67.36;97839.45;107977;1290;23122;-85
2022/04/04 05:10:36;;;;;;;28.90;26.10;;;;;;;-1.39;67.25;97845.72;107691;1293;22983;-85
2022/04/04 05:13:04;;;;;;;26.60;23.90;;;;;;;-1.36;67.00;97846.85;108010;1290;22481;-84
2022/04/04 05:15:32;;;;;;;28.50;25.70;;;;;;;-1.32;67.03;97844.98;108009;1289;23123;-85
2022/04/04 05:17:59;;;;;;;28.90;26.10;;;;;;;-1.28;67.08;97843.38;107616;1291;22429;-83
2022/04/04 05:20:28;;;;;;;24.60;22.00;;;;;;;-1.23;66.88;97840.70;108044;1290;23083;-86
2022/04/04 05:22:59;;;;;;;27.80;24.00;;;;;;;-1.19;66.70;97838.02;108047;1290;22409;-85
2022/04/04 05:25:28;;;;;;;32.10;27.00;;;;;;;-1.12;66.82;97841.58;108058;1290;22541;-85
2022/04/04 05:27:56;;;;;;;32.60;25.70;;;;;;;-1.06;66.64;97845.89;108030;1290;22548;-86
2022/04/04 05:30:25;;;;;;;30.40;26.20;;;;;;;-0.99;66.70;97843.56;108040;1290;22356;-86
2022/04/04 05:32:54;;;;;;;26.90;23.80;;;;;;;-0.91;66.42;97841.85;108013;1290;22379;-87
2022/04/04 05:35:22;;;;;;;23.40;21.10;;;;;;;-0.84;66.46;97842.07;107983;1290;22264;-87
2022/04/04 05:37:54;;;;;;;23.90;21.30;;;;;;;-0.79;66.02;97839.66;107994;1290;22565;-86
2022/04/04 05:40:24;;;;;;;27.40;21.70;;;;;;;-0.74;66.24;97839.63;107995;1290;22347;-85
2022/04/04 05:42:54;;;;;;;21.80;19.70;;;;;;;-0.70;65.09;97841.89;107986;1290;23042;-86
2022/04/04 05:45:22;;;;;;;36.10;24.40;;;;;;;-0.66;65.75;97839.97;108027;1290;22403;-85
2022/04/04 05:47:50;;;;;;;22.20;19.90;;;;;;;-0.63;65.42;97835.48;107978;1290;23263;-87
2022/04/04 05:50:18;;;;;;;25.70;21.80;;;;;;;-0.62;65.75;97839.73;108020;1290;22258;-88
2022/04/04 05:52:46;;;;;;;23.70;20.70;;;;;;;-0.61;65.80;97841.15;107682;1290;23126;-88
2022/04/04 05:55:14;;;;;;;31.80;25.80;;;;;;;-0.60;65.63;97844.67;108003;1290;22330;-86
2022/04/04 05:57:42;;;;;;;26.50;23.80;;;;;;;-0.59;65.59;97847.88;107597;1290;22369;-88
2022/04/04 06:00:13;;;;;;;26.00;22.40;;;;;;;-0.60;65.06;97844.40;107989;1290;22376;-88
2022/04/04 06:02:44;;;;;;;28.90;25.50;;;;;;;-0.62;65.32;97841.39;108120;1290;22482;-85
2022/04/04 06:05:12;;;;;;;31.50;28.20;;;;;;;-0.60;65.22;97842.81;108034;1289;23196;-87
2022/04/04 06:07:40;;;;;;;51.40;46.70;;;;;;;-0.56;65.43;97839.57;108008;1290;22334;-88
2022/04/04 06:10:10;;;;;;;26.50;24.00;;;;;;;-0.54;64.56;97844.58;108072;1290;22505;-87
2022/04/04 06:12:38;;;;;;;34.40;31.10;;;;;;;-0.52;64.70;97843.00;107688;1290;22469;-88
2022/04/04 06:15:07;;;;;;;44.20;40.20;;;;;;;-0.52;64.76;97841.85;107989;1289;22415;-88
2022/04/04 06:17:34;;;;;;;40.90;37.10;;;;;;;-0.49;65.21;97841.03;107984;1290;23136;-86
2022/04/04 06:20:03;;;;;;;24.90;22.50;;;;;;;-0.43;65.24;97840.84;107982;1289;22497;-86
2022/04/04 06:22:37;;;;;;;28.00;25.10;;;;;;;-0.41;64.29;97841.14;107979;1290;22443;-86
2022/04/04 06:25:12;;;;;;;24.30;21.90;;;;;;;-0.40;63.83;97844.02;107982;1290;22428;-86
2022/04/04 06:27:40;;;;;;;26.40;23.60;;;;;;;-0.40;63.99;97837.88;107673;1290;22308;-86
2022/04/04 06:30:10;;;;;;;23.00;20.70;;;;;;;-0.37;64.53;97837.01;107989;1290;22896;-85
2022/04/04 06:32:43;;;;;;;22.80;20.60;;;;;;;-0.33;63.45;97842.39;108016;1290;22362;-85
2022/04/04 06:35:15;;;;;;;23.60;21.40;;;;;;;-0.33;63.08;97839.99;108005;1290;22325;-85
2022/04/04 06:37:45;;;;;;;22.70;20.50;;;;;;;-0.33;63.66;97839.17;108000;1290;22440;-84
2022/04/04 06:40:14;;;;;;;25.50;23.20;;;;;;;-0.29;63.01;97844.40;108012;1290;22284;-85
2022/04/04 06:42:43;;;;;;;26.20;24.00;;;;;;;-0.26;63.40;97835.73;107673;1290;22310;-86
2022/04/04 06:45:12;;;;;;;25.70;23.30;;;;;;;-0.21;63.42;97838.90;107978;1290;22473;-87
2022/04/04 06:47:40;;;;;;;24.90;22.30;;;;;;;-0.18;62.91;97841.89;107998;1290;22544;-85
2022/04/04 06:50:09;;;;;;;25.30;22.70;;;;;;;-0.15;62.79;97843.55;108012;1290;22471;-86
2022/04/04 06:52:37;;;;;;;22.90;20.70;;;;;;;-0.09;62.28;97841.66;108000;1290;22451;-87
2022/04/04 06:55:25;;;;;;;20.70;18.70;;;;;;;-0.03;61.57;97845.17;108023;1290;22271;-87
2022/04/04 06:57:53;;;;;;;21.10;19.00;;;;;;;-0.01;62.09;97843.91;108307;1290;22250;-86
2022/04/04 07:00:22;;;;;;;19.10;17.30;;;;;;;0.04;62.00;97833.77;108315;1289;22310;-88
2022/04/04 07:02:50;;;;;;;21.90;19.80;;;;;;;0.05;61.63;97831.99;107764;1290;22888;-86
2022/04/04 07:05:18;;;;;;;24.00;21.60;;;;;;;0.05;61.50;97830.45;108033;1290;22368;-87
2022/04/04 07:07:46;;;;;;;26.30;23.80;;;;;;;0.05;62.07;97828.92;108005;1290;22459;-88
2022/04/04 07:10:14;;;;;;;33.50;30.10;;;;;;;0.08;62.06;97833.08;108000;1290;23146;-89
2022/04/04 07:12:42;;;;;;;26.90;24.00;;;;;;;0.15;62.25;97837.51;108000;1290;22457;-89
2022/04/04 07:15:11;;;;;;;36.60;32.90;;;;;;;0.21;60.84;97833.99;108015;1290;23027;-88
2022/04/04 07:17:41;;;;;;;50.80;46.10;;;;;;;0.26;60.91;97837.11;107694;1290;22362;-89
2022/04/04 07:20:10;;;;;;;24.50;22.30;;;;;;;0.34;61.29;97833.77;108001;1290;22298;-87
2022/04/04 07:22:40;;;;;;;20.70;18.90;;;;;;;0.39;61.66;97828.11;108040;1290;22396;-87
2022/04/04 07:25:09;;;;;;;23.40;21.30;;;;;;;0.46;61.46;97826.74;108052;1289;22218;-87
2022/04/04 07:27:41;;;;;;;22.00;19.50;;;;;;;0.57;61.82;97823.55;108038;1290;22287;-87
2022/04/04 07:30:12;;;;;;;22.60;20.40;;;;;;;0.66;61.89;97815.47;108007;1289;22196;-87
2022/04/04 07:32:40;;;;;;;20.20;18.30;;;;;;;0.79;61.83;97813.21;108007;1290;22439;-84
2022/04/04 07:35:11;;;;;;;21.30;18.70;;;;;;;0.89;61.63;97818.90;107990;1290;22412;-84
2022/04/04 07:37:40;;;;;;;23.70;20.20;;;;;;;1.00;62.02;97815.33;107975;1290;22371;-88
2022/04/04 07:40:14;;;;;;;21.60;19.50;;;;;;;1.13;61.93;97815.45;107751;1290;22467;-88
2022/04/04 07:42:45;;;;;;;21.80;19.90;;;;;;;1.20;60.53;97818.69;107890;1290;22285;-86
2022/04/04 07:45:15;;;;;;;24.10;21.60;;;;;;;1.23;60.10;97822.41;107934;1290;22454;-84
2022/04/04 07:47:44;;;;;;;18.90;17.20;;;;;;;1.27;60.25;97823.50;107943;1291;22394;-87
2022/04/04 07:50:14;;;;;;;19.60;17.70;;;;;;;1.34;60.31;97820.27;108228;1291;23103;-84
2022/04/04 07:52:42;;;;;;;22.10;19.80;;;;;;;1.43;60.13;97817.80;108022;1291;22558;-85
2022/04/04 07:55:10;;;;;;;20.40;18.50;;;;;;;1.51;60.71;97811.19;107878;1291;22731;-82
2022/04/04 07:57:39;;;;;;;19.10;17.20;;;;;;;1.61;61.00;97802.89;107881;1290;22370;-83
2022/04/04 08:00:11;;;;;;;18.00;16.40;;;;;;;1.73;60.83;97804.13;107649;1290;23184;-82
2022/04/04 08:02:38;;;;;;;18.60;16.80;;;;;;;1.84;59.17;97808.16;107627;1290;22338;-85
2022/04/04 08:05:08;;;;;;;17.30;15.70;;;;;;;1.89;59.76;97808.86;107982;1290;23543;-84
2022/04/04 08:07:37;;;;;;;20.10;17.90;;;;;;;1.92;58.36;97809.48;107556;1291;22381;-86
2022/04/04 08:10:06;;;;;;;19.30;17.20;;;;;;;1.95;59.50;97805.77;107956;1290;22312;-85
2022/04/04 08:12:35;;;;;;;20.80;18.60;;;;;;;1.97;59.33;97810.91;107655;1290;22378;-82
2022/04/04 08:15:04;;;;;;;22.30;18.40;;;;;;;1.97;58.98;97810.95;107986;1290;22333;-85
2022/04/04 08:17:32;;;;;;;20.20;18.10;;;;;;;1.98;59.34;97811.49;107963;1290;22372;-84
2022/04/04 08:20:00;;;;;;;19.40;17.40;;;;;;;2.01;59.13;97813.24;107984;1290;22927;-84
2022/04/04 08:22:28;;;;;;;17.80;16.30;;;;;;;2.02;59.25;97821.92;107956;1289;22404;-81
2022/04/04 08:24:56;;;;;;;19.90;17.90;;;;;;;1.96;58.88;97816.98;107977;1290;22380;-84
2022/04/04 08:27:24;;;;;;;17.20;15.60;;;;;;;1.89;59.58;97815.41;107980;1290;22339;-83
2022/04/04 08:29:52;;;;;;;19.80;17.80;;;;;;;1.83;59.93;97809.30;107998;1290;22982;-82
2022/04/04 08:32:20;;;;;;;26.90;21.90;;;;;;;1.83;60.36;97812.19;107978;1290;23124;-82
2022/04/04 08:34:48;;;;;;;20.30;18.40;;;;;;;1.81;59.79;97812.33;107499;1293;22287;-82
2022/04/04 08:37:17;;;;;;;22.80;20.60;;;;;;;1.78;59.83;97812.95;108028;1290;22377;-84
2022/04/04 08:39:47;;;;;;;19.80;17.90;;;;;;;1.73;59.54;97809.44;108042;1290;22327;-82
2022/04/04 08:42:16;;;;;;;20.80;18.70;;;;;;;1.70;59.88;97812.76;107934;1291;22270;-81
2022/04/04 08:44:45;;;;;;;21.20;19.30;;;;;;;1.65;60.01;97805.19;107848;1291;23270;-81
2022/04/04 08:47:13;;;;;;;16.90;15.30;;;;;;;1.59;60.19;97808.60;107777;1291;22563;-83
2022/04/04 08:49:41;;;;;;;18.10;16.10;;;;;;;1.52;60.31;97803.02;107871;1291;22242;-82
2022/04/04 08:52:09;;;;;;;20.90;18.90;;;;;;;1.49;60.49;97799.09;107862;1290;22517;-82
2022/04/04 08:54:37;;;;;;;20.40;18.40;;;;;;;1.51;60.79;97795.08;107907;1290;22324;-84
2022/04/04 08:57:05;;;;;;;18.50;16.30;;;;;;;1.56;60.44;97797.08;107865;1291;22327;-83
2022/04/04 08:59:32;;;;;;;20.10;18.20;;;;;;;1.67;60.31;97787.73;107811;1290;22522;-82
2022/04/04 09:02:01;;;;;;;20.80;18.60;;;;;;;1.80;60.30;97788.61;107555;1290;22271;-83
2022/04/04 09:04:32;;;;;;;21.70;19.60;;;;;;;1.92;60.24;97788.83;107895;1290;22337;-83
2022/04/04 09:07:06;;;;;;;21.10;19.10;;;;;;;2.04;59.87;97781.02;107969;1289;22458;-83
2022/04/04 09:09:45;;;;;;;21.30;19.10;;;;;;;2.11;59.97;97778.55;107963;1290;22720;-83
2022/04/04 09:12:22;;;;;;;17.40;15.70;;;;;;;2.21;59.79;97773.09;107980;1290;23133;-82
2022/04/04 09:15:00;;;;;;;16.00;14.60;;;;;;;2.33;59.88;97769.35;107654;1290;22410;-85
2022/04/04 09:17:32;;;;;;;16.60;15.10;;;;;;;2.54;59.66;97763.05;107617;1291;22463;-86
2022/04/04 09:20:09;;;;;;;16.00;14.50;;;;;;;2.68;59.66;97756.38;107883;1291;22432;-86
2022/04/04 09:22:51;;;;;;;16.10;14.60;;;;;;;2.80;59.74;97747.50;107893;1291;22448;-85
2022/04/04 09:25:30;;;;;;;18.80;17.00;;;;;;;2.90;59.25;97746.84;107914;1291;22440;-84
2022/04/04 09:28:15;;;;;;;14.70;13.20;;;;;;;3.00;58.69;97742.45;107900;1291;22392;-84
2022/04/04 09:31:03;;;;;;;16.10;14.50;;;;;;;3.09;58.40;97738.48;107926;1291;22656;-83
2022/04/04 09:33:38;;;;;;;16.70;15.00;;;;;;;3.18;58.79;97740.48;107602;1291;22381;-86
2022/04/04 09:36:08;;;;;;;16.40;14.90;;;;;;;3.32;59.14;97728.38;107873;1291;22478;-85
2022/04/04 09:38:36;;;;;;;17.70;15.90;;;;;;;3.41;58.22;97725.46;107851;1291;22369;-85
2022/04/04 09:41:06;;;;;;;16.60;15.10;;;;;;;3.43;57.80;97727.49;107877;1290;22269;-84
2022/04/04 09:43:56;;;;;;;15.80;14.30;;;;;;;3.38;57.08;97724.16;107859;1291;22274;-85
2022/04/04 09:46:33;;;;;;;16.90;15.30;;;;;;;3.47;58.24;97711.59;107887;1290;22380;-84
2022/04/04 09:49:20;;;;;;;19.00;17.20;;;;;;;3.58;57.55;97710.59;107580;1291;23246;-86
2022/04/04 09:51:50;;;;;;;17.70;16.00;;;;;;;3.62;57.61;97705.67;107851;1291;22391;-84
2022/04/04 09:54:22;;;;;;;16.30;14.60;;;;;;;3.66;57.87;97702.80;107651;1290;22266;-85
2022/04/04 09:57:15;;;;;;;17.00;15.20;;;;;;;3.66;57.52;97704.09;107984;1290;22343;-86
2022/04/04 09:59:43;;;;;;;17.40;15.60;;;;;;;3.61;57.41;97693.23;107898;1290;22435;-85
2022/04/04 10:02:13;;;;;;;15.90;14.30;;;;;;;3.77;57.46;97691.77;107976;1290;23824;-86
2022/04/04 10:04:44;;;;;;;14.70;13.20;;;;;;;4.00;57.11;97688.46;107667;1290;22277;-84
2022/04/04 10:07:16;;;;;;;15.10;13.80;;;;;;;4.17;56.89;97680.48;107959;1290;22613;-86
2022/04/04 10:09:45;;;;;;;17.10;13.30;;;;;;;4.30;56.71;97679.64;107943;1290;22295;-84
2022/04/04 10:12:13;;;;;;;14.80;13.30;;;;;;;4.39;56.44;97677.05;107941;1290;22297;-86
2022/04/04 10:14:42;;;;;;;14.80;13.40;;;;;;;4.48;56.49;97667.30;107963;1290;22273;-86
2022/04/04 10:17:11;;;;;;;18.40;15.60;;;;;;;4.59;55.63;97669.35;107996;1290;22318;-86
2022/04/04 10:19:40;;;;;;;13.10;11.90;;;;;;;4.72;56.11;97658.05;107961;1287;22309;-86
2022/04/04 10:22:09;;;;;;;13.20;12.00;;;;;;;4.91;56.60;97650.36;107698;1290;22259;-86
2022/04/04 10:24:38;;;;;;;12.50;10.80;;;;;;;5.12;56.25;97646.11;108011;1290;22394;-86
2022/04/04 10:27:12;;;;;;;14.60;13.30;;;;;;;5.29;54.96;97650.15;107971;1289;22385;-87
2022/04/04 10:29:41;;;;;;;17.70;16.00;;;;;;;5.42;55.30;97645.73;107526;1290;22355;-83
2022/04/04 10:32:23;;;;;;;13.30;11.20;;;;;;;5.57;55.51;97632.55;107985;1290;22465;-84
2022/04/04 10:34:51;;;;;;;12.90;11.50;;;;;;;5.65;54.64;97633.16;107642;1293;23255;-85
2022/04/04 10:37:23;;;;;;;14.90;13.30;;;;;;;5.59;54.48;97631.95;108024;1290;22398;-85
2022/04/04 10:39:52;;;;;;;13.80;12.40;;;;;;;5.55;53.33;97634.33;107990;1290;23575;-85
2022/04/04 10:42:41;;;;;;;13.10;11.80;;;;;;;5.49;52.88;97637.17;107693;1290;22393;-83
2022/04/04 10:45:15;;;;;;;12.90;11.70;;;;;;;5.31;52.34;97621.88;107991;1290;22251;-84
2022/04/04 10:47:44;;;;;;;13.70;12.30;;;;;;;5.19;53.20;97622.82;107662;1290;22362;-85
2022/04/04 10:50:32;;;;;;;14.10;11.60;;;;;;;5.25;53.44;97604.05;107984;1289;22271;-86
2022/04/04 10:53:02;;;;;;;13.60;10.80;;;;;;;5.41;53.20;97601.02;107633;1293;22490;-86
2022/04/04 10:55:41;;;;;;;10.50;8.90;;;;;;;5.57;53.63;97594.07;107967;1290;22237;-86
2022/04/04 10:58:19;;;;;;;12.30;9.70;;;;;;;5.76;52.97;97597.61;107874;1291;22250;-83
2022/04/04 11:01:11;;;;;;;17.90;16.20;;;;;;;5.76;52.62;97598.42;107902;1291;22373;-82
2022/04/04 11:03:41;;;;;;;30.80;28.10;;;;;;;5.62;51.97;97597.25;107875;1290;22510;-82
2022/04/04 11:09:00;;;;;;;13.30;11.90;;;;;;;5.68;53.80;97579.48;107876;1291;22304;-81
2022/04/04 11:11:44;;;;;;;12.50;11.30;;;;;;;5.81;53.08;97583.16;107655;1292;22525;-83
2022/04/04 11:14:12;;;;;;;13.80;12.40;;;;;;;5.86;51.60;97591.69;107836;1291;22594;-81
2022/04/04 11:17:08;;;;;;;14.00;12.80;;;;;;;5.84;51.59;97577.48;107843;1291;22404;-81
2022/04/04 11:20:06;;;;;;;15.10;13.70;;;;;;;5.81;53.85;97574.75;107789;1291;22473;-82
2022/04/04 11:22:36;;;;;;;13.50;12.30;;;;;;;5.79;51.94;97573.33;107592;1292;22268;-81
2022/04/04 11:25:06;;;;;;;14.00;12.70;;;;;;;5.71;52.47;97568.83;107780;1291;22407;-83
2022/04/04 11:27:36;;;;;;;14.30;12.90;;;;;;;5.66;51.69;97571.73;107787;1291;22498;-83
2022/04/04 11:30:13;;;;;;;15.80;13.50;;;;;;;5.64;51.79;97570.52;107679;1291;22397;-82
2022/04/04 11:32:49;;;;;;;15.70;14.30;;;;;;;5.46;51.21;97564.23;107814;1291;22549;-82
2022/04/04 11:35:27;;;;;;;15.00;13.50;;;;;;;5.27;51.19;97563.43;107790;1291;22424;-84
2022/04/04 11:38:07;;;;;;;13.00;11.80;;;;;;;5.14;51.63;97561.94;107836;1290;22438;-83